createdAt,value
2022-12-02T00:00:14.234Z,28.20
2022-12-02T00:01:14.564Z,28.70
2022-12-02T00:02:14.933Z,28.30
2022-12-02T00:03:15.345Z,27.60
2022-12-02T00:04:15.597Z,28.10
2022-12-02T00:05:15.798Z,27.40
2022-12-02T00:06:16.076Z,28.20
2022-12-02T00:07:16.420Z,28.80
2022-12-02T00:08:16.748Z,30.10
2022-12-02T00:09:16.961Z,28.20
2022-12-02T00:10:17.272Z,28.50
2022-12-02T00:11:17.582Z,27.90
2022-12-02T00:12:17.890Z,27.10
2022-12-02T00:13:18.174Z,27.00
2022-12-02T00:14:18.521Z,27.10
2022-12-02T00:15:18.850Z,27.00
2022-12-02T00:16:19.149Z,28.10
2022-12-02T00:17:19.426Z,27.20
2022-12-02T00:18:19.764Z,26.20
2022-12-02T00:19:20.121Z,27.90
2022-12-02T00:20:20.430Z,25.90
2022-12-02T00:21:20.744Z,27.60
2022-12-02T00:22:21.022Z,27.00
2022-12-02T00:23:21.337Z,27.20
2022-12-02T00:24:21.681Z,26.90
2022-12-02T00:25:22.043Z,26.70
2022-12-02T00:26:22.353Z,27.40
2022-12-02T00:27:22.642Z,26.30
2022-12-02T00:28:22.985Z,26.90
2022-12-02T00:29:23.292Z,27.80
2022-12-02T00:30:23.611Z,27.30
2022-12-02T00:31:23.948Z,25.70
2022-12-02T00:32:24.141Z,26.00
2022-12-02T00:33:24.404Z,26.40
2022-12-02T00:34:24.750Z,25.60
2022-12-02T00:35:25.086Z,26.20
2022-12-02T00:36:25.364Z,26.50
2022-12-02T00:37:25.707Z,28.00
2022-12-02T00:38:26.035Z,27.70
2022-12-02T00:39:26.390Z,28.30
2022-12-02T00:40:26.702Z,28.30
2022-12-02T00:41:27.004Z,29.10
2022-12-02T00:42:27.312Z,28.30
2022-12-02T00:43:27.625Z,28.00
2022-12-02T00:44:27.956Z,27.70
2022-12-02T00:45:28.325Z,28.00
2022-12-02T00:46:28.669Z,28.20
2022-12-02T00:47:28.822Z,28.30
2022-12-02T00:48:29.155Z,27.90
2022-12-02T00:49:29.461Z,27.90
2022-12-02T00:50:29.772Z,27.20
2022-12-02T00:51:30.083Z,27.70
2022-12-02T00:52:30.381Z,26.60
2022-12-02T00:53:30.709Z,27.10
2022-12-02T00:54:31.074Z,26.30
2022-12-02T00:55:31.381Z,26.80
2022-12-02T00:56:31.698Z,26.20
2022-12-02T00:57:32.004Z,27.10
2022-12-02T00:58:32.322Z,26.50
2022-12-02T00:59:32.620Z,26.50
2022-12-02T01:00:32.955Z,27.90
2022-12-02T01:01:33.164Z,27.30
2022-12-02T01:02:33.521Z,27.40
2022-12-02T01:03:33.722Z,26.70
2022-12-02T01:04:34.005Z,24.80
2022-12-02T01:05:34.392Z,26.40
2022-12-02T01:06:34.703Z,26.90
2022-12-02T01:07:35.060Z,26.70
2022-12-02T01:08:35.214Z,26.40
2022-12-02T01:09:35.536Z,25.90
2022-12-02T01:10:35.922Z,25.30
2022-12-02T01:11:36.204Z,26.50
2022-12-02T01:12:36.572Z,24.60
2022-12-02T01:13:36.872Z,26.70
2022-12-02T01:14:37.204Z,26.10
2022-12-02T01:15:37.504Z,25.30
2022-12-02T01:16:37.863Z,25.80
2022-12-02T01:17:38.134Z,26.30
2022-12-02T01:18:38.481Z,26.10
2022-12-02T01:19:38.798Z,25.80
2022-12-02T01:20:39.124Z,27.30
2022-12-02T01:21:39.395Z,25.50
2022-12-02T01:22:39.723Z,25.80
2022-12-02T01:23:40.035Z,26.40
2022-12-02T01:24:40.371Z,26.60
2022-12-02T01:25:40.714Z,26.40
2022-12-02T01:26:40.986Z,26.40
2022-12-02T01:27:41.312Z,26.00
2022-12-02T01:28:41.636Z,25.60
2022-12-02T01:29:41.993Z,25.90
2022-12-02T01:30:42.318Z,25.70
2022-12-02T01:31:42.651Z,25.70
2022-12-02T01:32:42.915Z,25.50
2022-12-02T01:33:43.254Z,25.40
2022-12-02T01:34:43.574Z,26.20
2022-12-02T01:35:43.940Z,25.20
2022-12-02T01:36:44.232Z,24.80
2022-12-02T01:37:44.545Z,26.10
2022-12-02T01:38:44.863Z,25.00
2022-12-02T01:39:45.212Z,25.10
2022-12-02T01:40:45.523Z,25.10
2022-12-02T01:41:45.811Z,25.40
2022-12-02T01:42:46.141Z,25.00
2022-12-02T01:43:46.451Z,24.20
2022-12-02T01:44:46.714Z,23.70
2022-12-02T01:45:54.186Z,25.40
2022-12-02T01:46:47.353Z,25.60
2022-12-02T01:47:47.657Z,26.00
2022-12-02T01:48:47.947Z,24.00
2022-12-02T01:49:48.239Z,25.10
2022-12-02T01:50:48.589Z,25.50
2022-12-02T01:51:48.918Z,24.40
2022-12-02T01:52:53.564Z,25.10
2022-12-02T01:53:50.471Z,24.90
2022-12-02T01:54:50.184Z,23.90
2022-12-02T01:55:50.147Z,26.00
2022-12-02T01:56:50.429Z,24.70
2022-12-02T01:57:50.767Z,24.20
2022-12-02T01:58:51.091Z,24.70
2022-12-02T01:59:51.401Z,23.30
2022-12-02T02:00:51.829Z,24.10
2022-12-02T02:01:52.021Z,23.80
2022-12-02T02:02:52.290Z,24.30
2022-12-02T02:03:52.629Z,23.80
2022-12-02T02:04:53.130Z,23.90
2022-12-02T02:05:53.282Z,24.90
2022-12-02T02:06:53.610Z,24.20
2022-12-02T02:07:53.995Z,23.60
2022-12-02T02:08:54.132Z,23.50
2022-12-02T02:09:54.448Z,23.30
2022-12-02T02:10:54.771Z,23.30
2022-12-02T02:11:55.112Z,23.80
2022-12-02T02:12:55.405Z,23.90
2022-12-02T02:13:55.737Z,23.90
2022-12-02T02:14:56.051Z,24.40
2022-12-02T02:15:56.379Z,23.20
2022-12-02T02:16:56.777Z,22.90
2022-12-02T02:18:00.740Z,23.70
2022-12-02T02:18:58.357Z,22.40
2022-12-02T02:19:57.561Z,23.60
2022-12-02T02:20:57.907Z,22.70
2022-12-02T02:21:58.211Z,22.90
2022-12-02T02:22:58.508Z,23.80
2022-12-02T02:23:58.822Z,23.20
2022-12-02T02:24:59.159Z,23.20
2022-12-02T02:25:59.480Z,22.90
2022-12-02T02:26:59.828Z,22.70
2022-12-02T02:28:00.120Z,21.60
2022-12-02T02:29:00.450Z,22.10
2022-12-02T02:30:00.765Z,22.10
2022-12-02T02:31:01.194Z,19.40
2022-12-02T02:32:01.422Z,21.00
2022-12-02T02:33:01.719Z,21.10
2022-12-02T02:34:02.047Z,20.60
2022-12-02T02:35:02.387Z,21.80
2022-12-02T02:36:02.695Z,20.70
2022-12-02T02:37:03.065Z,21.80
2022-12-02T02:38:03.330Z,21.30
2022-12-02T02:39:03.679Z,19.30
2022-12-02T02:40:03.980Z,20.70
2022-12-02T02:41:04.264Z,20.30
2022-12-02T02:42:04.597Z,19.50
2022-12-02T02:43:04.895Z,20.00
2022-12-02T02:44:05.240Z,19.50
2022-12-02T02:45:05.535Z,20.40
2022-12-02T02:46:05.923Z,19.50
2022-12-02T02:47:06.175Z,20.30
2022-12-02T02:48:06.471Z,19.80
2022-12-02T02:49:06.806Z,20.90
2022-12-02T02:50:07.093Z,19.60
2022-12-02T02:51:07.447Z,20.50
2022-12-02T02:52:07.739Z,20.50
2022-12-02T02:53:08.067Z,21.00
2022-12-02T02:54:08.380Z,21.80
2022-12-02T02:55:08.741Z,19.70
2022-12-02T02:56:09.097Z,21.60
2022-12-02T02:57:09.279Z,19.60
2022-12-02T02:58:09.627Z,18.70
2022-12-02T02:59:09.941Z,19.60
2022-12-02T03:00:10.295Z,19.90
2022-12-02T03:01:10.659Z,20.10
2022-12-02T03:02:10.958Z,21.70
2022-12-02T03:03:11.275Z,21.10
2022-12-02T03:04:11.579Z,20.90
2022-12-02T03:05:11.886Z,22.20
2022-12-02T03:06:12.151Z,21.00
2022-12-02T03:07:12.517Z,21.50
2022-12-02T03:08:12.857Z,21.80
2022-12-02T03:09:13.136Z,21.80
2022-12-02T03:10:13.431Z,21.70
2022-12-02T03:11:13.745Z,23.20
2022-12-02T03:12:14.058Z,22.90
2022-12-02T03:13:14.332Z,22.40
2022-12-02T03:14:15.949Z,22.10
2022-12-02T03:15:14.926Z,22.70
2022-12-02T03:16:15.263Z,22.80
2022-12-02T03:17:15.599Z,23.20
2022-12-02T03:18:15.867Z,22.30
2022-12-02T03:19:16.191Z,22.50
2022-12-02T03:20:16.547Z,22.60
2022-12-02T03:21:16.832Z,23.20
2022-12-02T03:22:17.180Z,23.70
2022-12-02T03:23:17.459Z,23.60
2022-12-02T03:24:17.814Z,23.10
2022-12-02T03:25:18.115Z,22.70
2022-12-02T03:26:18.382Z,22.20
2022-12-02T03:27:18.711Z,23.60
2022-12-02T03:28:19.047Z,22.00
2022-12-02T03:29:19.386Z,23.20
2022-12-02T03:30:19.736Z,22.20
2022-12-02T03:31:20.058Z,22.50
2022-12-02T03:32:20.376Z,23.80
2022-12-02T03:33:20.639Z,24.00
2022-12-02T03:34:20.986Z,24.80
2022-12-02T03:35:21.310Z,23.10
2022-12-02T03:36:21.641Z,23.30
2022-12-02T03:37:22.033Z,24.00
2022-12-02T03:38:22.309Z,23.50
2022-12-02T03:39:22.652Z,22.80
2022-12-02T03:40:22.971Z,23.30
2022-12-02T03:41:23.318Z,23.40
2022-12-02T03:42:23.647Z,22.80
2022-12-02T03:43:23.946Z,24.00
2022-12-02T03:44:24.297Z,23.30
2022-12-02T03:45:24.611Z,23.50
2022-12-02T03:46:24.921Z,24.10
2022-12-02T03:47:25.226Z,22.70
2022-12-02T03:48:25.500Z,23.70
2022-12-02T03:49:25.876Z,24.00
2022-12-02T03:50:26.148Z,23.30
2022-12-02T03:51:26.469Z,23.20
2022-12-02T03:52:26.837Z,24.30
2022-12-02T03:53:27.127Z,23.60
2022-12-02T03:54:27.451Z,23.60
2022-12-02T03:55:27.797Z,24.20
2022-12-02T03:56:28.135Z,23.40
2022-12-02T03:57:28.499Z,23.50
2022-12-02T03:58:28.786Z,24.30
2022-12-02T03:59:29.120Z,22.40
2022-12-02T04:00:29.447Z,24.10
2022-12-02T04:01:29.849Z,23.70
2022-12-02T04:02:30.072Z,23.30
2022-12-02T04:03:30.243Z,23.20
2022-12-02T04:04:30.574Z,24.90
2022-12-02T04:05:30.922Z,24.70
2022-12-02T04:06:31.209Z,23.70
2022-12-02T04:07:31.619Z,23.00
2022-12-02T04:08:31.769Z,23.70
2022-12-02T04:09:32.090Z,24.30
2022-12-02T04:10:32.446Z,25.10
2022-12-02T04:11:32.710Z,24.00
2022-12-02T04:12:33.079Z,24.10
2022-12-02T04:13:33.378Z,24.00
2022-12-02T04:14:33.719Z,24.80
2022-12-02T04:15:34.112Z,25.00
2022-12-02T04:16:34.285Z,24.40
2022-12-02T04:17:34.607Z,24.20
2022-12-02T04:18:34.953Z,24.40
2022-12-02T04:19:35.256Z,25.00
2022-12-02T04:20:35.531Z,25.20
2022-12-02T04:21:35.876Z,24.60
2022-12-02T04:22:36.219Z,25.00
2022-12-02T04:23:36.539Z,25.20
2022-12-02T04:24:36.839Z,25.80
2022-12-02T04:25:37.129Z,25.00
2022-12-02T04:26:42.060Z,25.60
2022-12-02T04:27:38.784Z,26.20
2022-12-02T04:28:37.989Z,24.80
2022-12-02T04:29:38.326Z,25.60
2022-12-02T04:30:38.650Z,24.70
2022-12-02T04:31:39.051Z,24.10
2022-12-02T04:32:39.289Z,25.10
2022-12-02T04:33:39.488Z,25.90
2022-12-02T04:34:39.752Z,26.20
2022-12-02T04:35:40.080Z,26.20
2022-12-02T04:36:40.417Z,26.40
2022-12-02T04:37:40.785Z,26.40
2022-12-02T04:38:41.096Z,26.40
2022-12-02T04:39:41.379Z,27.10
2022-12-02T04:40:41.699Z,26.00
2022-12-02T04:41:42.054Z,27.20
2022-12-02T04:42:42.359Z,27.30
2022-12-02T04:43:42.669Z,27.60
2022-12-02T04:44:42.976Z,27.30
2022-12-02T04:45:43.266Z,26.50
2022-12-02T04:46:43.646Z,27.90
2022-12-02T04:47:43.839Z,26.40
2022-12-02T04:48:44.115Z,25.70
2022-12-02T04:49:44.440Z,26.10
2022-12-02T04:50:44.797Z,25.60
2022-12-02T04:51:45.089Z,26.60
2022-12-02T04:52:45.446Z,26.90
2022-12-02T04:53:45.731Z,27.60
2022-12-02T04:54:46.051Z,27.00
2022-12-02T04:55:46.500Z,26.80
2022-12-02T04:56:46.655Z,26.60
2022-12-02T04:57:46.955Z,27.90
2022-12-02T04:58:47.267Z,28.30
2022-12-02T04:59:47.549Z,26.50
2022-12-02T05:00:47.896Z,27.80
2022-12-02T05:01:48.168Z,28.00
2022-12-02T05:02:48.571Z,26.70
2022-12-02T05:03:48.862Z,28.20
2022-12-02T05:04:49.139Z,28.50
2022-12-02T05:05:49.484Z,27.70
2022-12-02T05:06:49.790Z,28.90
2022-12-02T05:07:50.206Z,29.10
2022-12-02T05:08:50.361Z,27.70
2022-12-02T05:09:50.717Z,28.00
2022-12-02T05:10:50.988Z,28.00
2022-12-02T05:11:51.309Z,28.70
2022-12-02T05:12:51.641Z,27.90
2022-12-02T05:13:51.996Z,28.70
2022-12-02T05:14:52.780Z,28.10
2022-12-02T05:15:52.669Z,29.20
2022-12-02T05:16:52.867Z,28.40
2022-12-02T05:17:53.205Z,28.90
2022-12-02T05:18:53.499Z,28.30
2022-12-02T05:19:53.810Z,29.00
2022-12-02T05:20:54.146Z,29.50
2022-12-02T05:21:54.419Z,28.20
2022-12-02T05:22:54.759Z,28.50
2022-12-02T05:23:55.109Z,29.40
2022-12-02T05:24:55.426Z,28.90
2022-12-02T05:25:55.755Z,29.40
2022-12-02T05:26:56.041Z,29.10
2022-12-02T05:27:56.396Z,29.20
2022-12-02T05:28:56.686Z,28.30
2022-12-02T05:29:57.009Z,29.40
2022-12-02T05:30:57.372Z,29.70
2022-12-02T05:31:57.765Z,29.90
2022-12-02T05:32:57.978Z,30.00
2022-12-02T05:33:58.316Z,29.80
2022-12-02T05:34:58.615Z,29.20
2022-12-02T05:35:58.934Z,28.40
2022-12-02T05:36:59.198Z,28.30
2022-12-02T05:38:04.577Z,28.80
2022-12-02T05:39:00.809Z,29.30
2022-12-02T05:40:00.153Z,28.90
2022-12-02T05:41:00.479Z,29.30
2022-12-02T05:42:00.808Z,30.40
2022-12-02T05:43:01.357Z,29.00
2022-12-02T05:44:01.439Z,30.00
2022-12-02T05:45:01.759Z,30.00
2022-12-02T05:46:02.103Z,30.40
2022-12-02T05:47:02.541Z,29.70
2022-12-02T05:48:02.771Z,31.30
2022-12-02T05:49:03.071Z,29.40
2022-12-02T05:50:03.359Z,30.00
2022-12-02T05:51:03.707Z,31.30
2022-12-02T05:52:04.011Z,30.30
2022-12-02T05:53:04.310Z,30.10
2022-12-02T05:54:04.617Z,32.00
2022-12-02T05:55:04.960Z,31.10
2022-12-02T05:56:05.278Z,30.50
2022-12-02T05:57:05.579Z,29.60
2022-12-02T05:58:05.902Z,30.20
2022-12-02T05:59:06.198Z,30.80
2022-12-02T06:00:06.509Z,31.60
2022-12-02T06:01:06.837Z,31.20
2022-12-02T06:02:07.251Z,30.60
2022-12-02T06:03:07.546Z,31.40
2022-12-02T06:04:07.740Z,30.90
2022-12-02T06:05:08.111Z,29.90
2022-12-02T06:06:08.438Z,31.10
2022-12-02T06:07:08.847Z,30.30
2022-12-02T06:08:09.076Z,31.80
2022-12-02T06:09:09.267Z,30.10
2022-12-02T06:10:09.554Z,30.30
2022-12-02T06:11:09.917Z,31.10
2022-12-02T06:12:10.230Z,30.80
2022-12-02T06:13:10.539Z,31.70
2022-12-02T06:14:10.848Z,29.90
2022-12-02T06:15:11.166Z,30.90
2022-12-02T06:16:11.516Z,30.50
2022-12-02T06:17:11.837Z,31.80
2022-12-02T06:18:12.171Z,32.50
2022-12-02T06:19:12.479Z,32.00
2022-12-02T06:20:12.773Z,30.70
2022-12-02T06:21:13.060Z,31.70
2022-12-02T06:22:13.401Z,32.10
2022-12-02T06:23:13.692Z,30.90
2022-12-02T06:24:14.049Z,31.90
2022-12-02T06:25:14.355Z,32.80
2022-12-02T06:26:14.640Z,32.10
2022-12-02T06:27:14.963Z,30.90
2022-12-02T06:28:15.306Z,31.10
2022-12-02T06:29:15.590Z,31.20
2022-12-02T06:30:15.918Z,32.70
2022-12-02T06:31:16.300Z,32.70
2022-12-02T06:32:16.563Z,31.70
2022-12-02T06:33:22.181Z,33.80
2022-12-02T06:34:18.057Z,32.50
2022-12-02T06:35:17.296Z,32.70
2022-12-02T06:36:17.588Z,33.10
2022-12-02T06:37:17.937Z,33.20
2022-12-02T06:38:18.247Z,33.80
2022-12-02T06:39:18.562Z,32.60
2022-12-02T06:40:28.124Z,32.50
2022-12-02T06:41:20.140Z,33.90
2022-12-02T06:42:19.507Z,33.80
2022-12-02T06:43:19.800Z,33.90
2022-12-02T06:44:20.090Z,33.60
2022-12-02T06:45:24.552Z,33.40
2022-12-02T06:46:21.789Z,34.10
2022-12-02T06:47:20.980Z,33.80
2022-12-02T06:48:21.330Z,33.90
2022-12-02T06:49:21.701Z,34.40
2022-12-02T06:50:22.021Z,32.70
2022-12-02T06:51:22.290Z,34.10
2022-12-02T06:52:22.620Z,34.00
2022-12-02T06:53:22.967Z,32.60
2022-12-02T06:54:23.261Z,32.90
2022-12-02T06:55:23.551Z,33.90
2022-12-02T06:56:23.890Z,33.50
2022-12-02T06:57:24.217Z,32.20
2022-12-02T06:58:24.588Z,33.40
2022-12-02T06:59:24.897Z,33.00
2022-12-02T07:00:25.246Z,31.30
2022-12-02T07:01:25.456Z,32.30
2022-12-02T07:02:25.796Z,33.40
2022-12-02T07:03:26.109Z,32.20
2022-12-02T07:04:26.442Z,32.90
2022-12-02T07:05:26.748Z,32.70
2022-12-02T07:06:27.032Z,33.20
2022-12-02T07:07:27.436Z,32.90
2022-12-02T07:08:27.642Z,31.80
2022-12-02T07:09:27.945Z,31.60
2022-12-02T07:10:28.151Z,33.50
2022-12-02T07:11:28.527Z,32.10
2022-12-02T07:12:28.858Z,32.70
2022-12-02T07:13:29.151Z,32.20
2022-12-02T07:14:29.504Z,31.80
2022-12-02T07:15:29.877Z,32.40
2022-12-02T07:16:30.227Z,32.70
2022-12-02T07:17:30.434Z,32.80
2022-12-02T07:18:30.835Z,33.00
2022-12-02T07:19:31.116Z,32.20
2022-12-02T07:20:31.469Z,32.40
2022-12-02T07:21:31.707Z,35.00
2022-12-02T07:22:31.951Z,33.60
2022-12-02T07:23:32.315Z,33.20
2022-12-02T07:24:32.557Z,31.60
2022-12-02T07:25:32.783Z,34.10
2022-12-02T07:26:33.176Z,33.00
2022-12-02T07:27:33.485Z,32.40
2022-12-02T07:28:33.749Z,31.10
2022-12-02T07:29:34.052Z,34.00
2022-12-02T07:30:34.458Z,31.70
2022-12-02T07:31:34.677Z,33.50
2022-12-02T07:32:35.015Z,34.10
2022-12-02T07:33:35.388Z,33.70
2022-12-02T07:34:35.585Z,34.20
2022-12-02T07:35:35.878Z,33.00
2022-12-02T07:36:36.208Z,33.70
2022-12-02T07:37:36.575Z,35.70
2022-12-02T07:39:04.645Z,35.00
2022-12-02T07:39:38.201Z,34.20
2022-12-02T07:40:37.436Z,34.20
2022-12-02T07:41:37.857Z,34.30
2022-12-02T07:42:38.078Z,33.50
2022-12-02T07:43:38.379Z,34.20
2022-12-02T07:44:38.707Z,35.70
2022-12-02T07:45:39.059Z,34.60
2022-12-02T07:46:46.300Z,36.00
2022-12-02T07:47:39.597Z,36.50
2022-12-02T07:48:39.919Z,36.10
2022-12-02T07:49:40.214Z,37.30
2022-12-02T07:50:40.601Z,36.50
2022-12-02T07:51:40.902Z,37.50
2022-12-02T07:52:41.173Z,36.90
2022-12-02T07:53:41.532Z,36.80
2022-12-02T07:54:41.747Z,35.20
2022-12-02T07:55:42.048Z,39.00
2022-12-02T07:56:42.412Z,37.20
2022-12-02T07:57:42.652Z,37.40
2022-12-02T07:59:10.858Z,37.90
2022-12-02T07:59:44.231Z,38.50
2022-12-02T08:00:43.511Z,38.80
2022-12-02T08:01:43.776Z,39.90
2022-12-02T08:02:43.979Z,38.60
2022-12-02T08:03:44.225Z,38.90
2022-12-02T08:04:44.598Z,38.10
2022-12-02T08:05:44.807Z,39.30
2022-12-02T08:06:45.130Z,38.00
2022-12-02T08:07:45.481Z,39.30
2022-12-02T08:08:45.775Z,39.60
2022-12-02T08:09:46.036Z,38.30
2022-12-02T08:10:46.279Z,38.10
2022-12-02T08:11:46.584Z,39.20
2022-12-02T08:12:46.832Z,39.80
2022-12-02T08:13:47.077Z,38.00
2022-12-02T08:14:47.340Z,39.90
2022-12-02T08:15:52.668Z,39.20
2022-12-02T08:16:48.987Z,39.50
2022-12-02T08:17:48.299Z,40.30
2022-12-02T08:18:48.616Z,39.50
2022-12-02T08:19:48.935Z,41.10
2022-12-02T08:20:49.210Z,39.80
2022-12-02T08:21:49.404Z,40.60
2022-12-02T08:22:49.677Z,39.90
2022-12-02T08:23:49.976Z,38.50
2022-12-02T08:24:50.595Z,38.80
2022-12-02T08:25:50.499Z,40.60
2022-12-02T08:26:50.830Z,39.90
2022-12-02T08:27:51.080Z,39.80
2022-12-02T08:28:54.143Z,41.20
2022-12-02T08:29:51.739Z,40.30
2022-12-02T08:30:52.135Z,40.10
2022-12-02T08:31:52.377Z,40.30
2022-12-02T08:32:52.674Z,40.70
2022-12-02T08:33:53.044Z,40.30
2022-12-02T08:34:53.709Z,41.40
2022-12-02T08:35:53.593Z,41.90
2022-12-02T08:36:53.834Z,40.90
2022-12-02T08:37:54.090Z,38.90
2022-12-02T08:38:54.324Z,39.60
2022-12-02T08:39:54.591Z,40.90
2022-12-02T08:40:54.929Z,41.30
2022-12-02T08:41:55.245Z,41.40
2022-12-02T08:42:55.489Z,42.20
2022-12-02T08:43:55.756Z,41.40
2022-12-02T08:44:55.963Z,43.00
2022-12-02T08:45:56.278Z,40.00
2022-12-02T08:46:56.489Z,42.30
2022-12-02T08:47:56.780Z,42.50
2022-12-02T08:48:57.069Z,43.10
2022-12-02T08:49:57.262Z,41.80
2022-12-02T08:50:57.512Z,42.70
2022-12-02T08:51:57.744Z,43.00
2022-12-02T08:52:58.785Z,40.60
2022-12-02T08:53:58.261Z,43.30
2022-12-02T08:54:58.573Z,42.30
2022-12-02T08:55:58.803Z,42.20
2022-12-02T08:56:59.060Z,42.10
2022-12-02T08:57:59.310Z,41.40
2022-12-02T08:58:59.534Z,42.10
2022-12-02T08:59:59.765Z,40.50
2022-12-02T09:01:00.004Z,41.20
2022-12-02T09:02:00.288Z,41.90
2022-12-02T09:03:00.541Z,41.80
2022-12-02T09:04:00.780Z,43.50
2022-12-02T09:05:01.012Z,42.60
2022-12-02T09:06:01.259Z,40.10
2022-12-02T09:07:01.511Z,41.90
2022-12-02T09:08:01.780Z,42.40
2022-12-02T09:09:02.032Z,41.60
2022-12-02T09:10:02.228Z,40.50
2022-12-02T09:11:02.501Z,41.70
2022-12-02T09:12:02.720Z,43.00
2022-12-02T09:13:03.025Z,43.10
2022-12-02T09:14:03.314Z,43.80
2022-12-02T09:15:03.517Z,43.40
2022-12-02T09:16:03.791Z,41.80
2022-12-02T09:17:04.113Z,42.60
2022-12-02T09:18:04.295Z,41.30
2022-12-02T09:19:04.562Z,41.20
2022-12-02T09:20:04.917Z,41.70
2022-12-02T09:21:05.113Z,41.90
2022-12-02T09:22:05.380Z,43.60
2022-12-02T09:23:05.720Z,41.50
2022-12-02T09:24:06.042Z,42.30
2022-12-02T09:25:06.343Z,42.00
2022-12-02T09:26:06.593Z,42.80
2022-12-02T09:27:06.871Z,42.80
2022-12-02T09:28:07.092Z,41.40
2022-12-02T09:29:07.422Z,44.20
2022-12-02T09:30:07.775Z,44.00
2022-12-02T09:31:08.119Z,43.80
2022-12-02T09:32:08.332Z,43.80
2022-12-02T09:33:08.564Z,42.40
2022-12-02T09:34:08.813Z,43.00
2022-12-02T09:35:09.069Z,41.90
2022-12-02T09:36:09.372Z,40.90
2022-12-02T09:37:09.739Z,41.40
2022-12-02T09:38:10.057Z,41.00
2022-12-02T09:39:10.285Z,41.90
2022-12-02T09:40:10.602Z,42.30
2022-12-02T09:41:10.870Z,41.50
2022-12-02T09:42:11.174Z,41.20
2022-12-02T09:43:11.413Z,43.80
2022-12-02T09:44:11.680Z,42.50
2022-12-02T09:45:11.907Z,42.60
2022-12-02T09:46:12.248Z,42.00
2022-12-02T09:47:12.543Z,41.30
2022-12-02T09:48:12.773Z,41.50
2022-12-02T09:49:13.169Z,42.30
2022-12-02T09:50:13.393Z,42.60
2022-12-02T09:51:13.730Z,42.00
2022-12-02T09:52:14.059Z,42.60
2022-12-02T09:53:14.293Z,42.20
2022-12-02T09:54:14.642Z,41.10
2022-12-02T09:55:14.879Z,42.40
2022-12-02T09:56:15.074Z,43.60
2022-12-02T09:57:15.305Z,41.50
2022-12-02T09:58:15.559Z,42.90
2022-12-02T09:59:15.804Z,43.00
2022-12-02T10:00:16.156Z,41.50
2022-12-02T10:01:16.515Z,42.20
2022-12-02T10:02:16.814Z,42.60
2022-12-02T10:03:19.268Z,42.80
2022-12-02T10:04:17.346Z,42.40
2022-12-02T10:05:17.583Z,42.40
2022-12-02T10:06:17.931Z,41.40
2022-12-02T10:07:18.268Z,41.80
2022-12-02T10:08:18.575Z,41.50
2022-12-02T10:09:18.842Z,42.00
2022-12-02T10:10:19.128Z,42.40
2022-12-02T10:11:19.350Z,43.20
2022-12-02T10:12:19.542Z,43.10
2022-12-02T10:13:19.781Z,40.70
2022-12-02T10:14:20.023Z,43.30
2022-12-02T10:15:20.289Z,41.00
2022-12-02T10:16:20.621Z,42.00
2022-12-02T10:17:20.949Z,42.80
2022-12-02T10:18:21.262Z,40.20
2022-12-02T10:19:21.511Z,41.70
2022-12-02T10:20:21.743Z,43.20
2022-12-02T10:21:21.993Z,42.60
2022-12-02T10:22:22.216Z,41.00
2022-12-02T10:23:22.581Z,41.10
2022-12-02T10:24:22.849Z,41.70
2022-12-02T10:25:23.191Z,40.70
2022-12-02T10:26:23.521Z,40.00
2022-12-02T10:27:23.840Z,40.90
2022-12-02T10:28:24.084Z,40.30
2022-12-02T10:29:24.353Z,40.70
2022-12-02T10:30:24.572Z,39.90
2022-12-02T10:31:24.855Z,39.80
2022-12-02T10:32:25.044Z,40.20
2022-12-02T10:33:25.411Z,41.50
2022-12-02T10:34:25.663Z,39.00
2022-12-02T10:35:25.976Z,39.30
2022-12-02T10:36:26.251Z,39.50
2022-12-02T10:37:26.544Z,39.90
2022-12-02T10:38:26.793Z,39.30
2022-12-02T10:39:30.087Z,40.80
2022-12-02T10:40:28.438Z,40.40
2022-12-02T10:41:27.710Z,39.00
2022-12-02T10:42:28.039Z,40.60
2022-12-02T10:43:28.272Z,40.30
2022-12-02T10:44:28.523Z,40.90
2022-12-02T10:45:28.790Z,40.50
2022-12-02T10:46:29.176Z,40.50
2022-12-02T10:47:29.460Z,39.30
2022-12-02T10:48:29.684Z,41.20
2022-12-02T10:49:30.049Z,37.40
2022-12-02T10:50:30.269Z,39.30
2022-12-02T10:51:30.529Z,39.30
2022-12-02T10:52:30.790Z,38.70
2022-12-02T10:53:31.029Z,39.50
2022-12-02T10:54:31.263Z,38.80
2022-12-02T10:55:31.480Z,39.80
2022-12-02T10:56:31.733Z,38.30
2022-12-02T10:57:31.973Z,39.90
2022-12-02T10:58:32.260Z,38.30
2022-12-02T10:59:32.509Z,37.30
2022-12-02T11:00:32.777Z,39.30
2022-12-02T11:01:33.203Z,38.50
2022-12-02T11:02:33.353Z,38.10
2022-12-02T11:03:33.602Z,38.00
2022-12-02T11:04:33.951Z,37.90
2022-12-02T11:05:34.243Z,38.20
2022-12-02T11:06:34.604Z,39.00
2022-12-02T11:07:34.906Z,38.20
2022-12-02T11:08:35.120Z,36.90
2022-12-02T11:09:42.534Z,38.50
2022-12-02T11:10:36.660Z,36.40
2022-12-02T11:11:35.905Z,37.70
2022-12-02T11:12:36.182Z,39.10
2022-12-02T11:13:36.390Z,38.20
2022-12-02T11:14:36.678Z,37.30
2022-12-02T11:15:36.918Z,38.00
2022-12-02T11:16:43.501Z,38.50
2022-12-02T11:17:38.398Z,37.50
2022-12-02T11:18:37.669Z,38.00
2022-12-02T11:19:37.905Z,38.80
2022-12-02T11:20:38.223Z,37.80
2022-12-02T11:21:38.464Z,38.80
2022-12-02T11:22:38.731Z,38.20
2022-12-02T11:23:39.073Z,37.90
2022-12-02T11:24:39.393Z,37.60
2022-12-02T11:25:39.740Z,37.00
2022-12-02T11:26:40.069Z,37.00
2022-12-02T11:27:40.294Z,36.90
2022-12-02T11:28:40.540Z,37.50
2022-12-02T11:29:40.783Z,38.50
2022-12-02T11:30:41.037Z,35.40
2022-12-02T11:31:41.301Z,36.70
2022-12-02T11:32:41.603Z,36.30
2022-12-02T11:33:41.862Z,37.40
2022-12-02T11:35:08.799Z,38.00
2022-12-02T11:35:43.550Z,36.30
2022-12-02T11:36:42.827Z,37.30
2022-12-02T11:37:43.120Z,37.70
2022-12-02T11:38:43.255Z,36.10
2022-12-02T11:39:44.368Z,36.30
2022-12-02T11:40:43.824Z,35.80
2022-12-02T11:41:44.073Z,36.10
2022-12-02T11:42:44.305Z,35.10
2022-12-02T11:43:44.559Z,34.40
2022-12-02T11:44:44.820Z,35.80
2022-12-02T11:45:45.045Z,34.50
2022-12-02T11:46:45.353Z,34.40
2022-12-02T11:47:45.605Z,35.00
2022-12-02T11:48:45.846Z,35.60
2022-12-02T11:49:46.140Z,34.30
2022-12-02T11:50:46.372Z,34.90
2022-12-02T11:51:46.591Z,36.10
2022-12-02T11:52:46.831Z,35.10
2022-12-02T11:53:47.101Z,36.60
2022-12-02T11:54:47.324Z,35.50
2022-12-02T11:55:47.642Z,35.80
2022-12-02T11:56:47.909Z,37.00
2022-12-02T11:57:48.172Z,34.50
2022-12-02T11:58:48.500Z,34.70
2022-12-02T11:59:48.841Z,34.90
2022-12-02T12:00:49.174Z,34.60
2022-12-02T12:01:49.551Z,33.70
2022-12-02T12:02:49.847Z,34.70
2022-12-02T12:03:50.085Z,34.20
2022-12-02T12:04:50.625Z,33.60
2022-12-02T12:05:50.603Z,33.90
2022-12-02T12:06:50.844Z,34.00
2022-12-02T12:07:51.139Z,35.20
2022-12-02T12:08:51.400Z,33.20
2022-12-02T12:09:51.647Z,32.30
2022-12-02T12:10:51.823Z,32.70
2022-12-02T12:11:52.064Z,33.40
2022-12-02T12:12:52.295Z,27.90
2022-12-02T12:13:52.560Z,25.60
2022-12-02T12:14:53.115Z,20.90
2022-12-02T12:15:53.156Z,18.10
2022-12-02T12:16:53.472Z,14.50
2022-12-02T12:17:53.775Z,12.40
2022-12-02T12:18:53.968Z,10.20
2022-12-02T12:19:54.320Z,9.50
2022-12-02T12:20:54.654Z,10.30
2022-12-02T12:21:54.978Z,9.00
2022-12-02T12:22:55.204Z,7.20
2022-12-02T12:23:55.541Z,7.60
2022-12-02T12:24:55.850Z,8.30
2022-12-02T12:25:56.179Z,8.30
2022-12-02T12:26:56.497Z,7.90
2022-12-02T12:27:56.765Z,8.10
2022-12-02T12:28:57.114Z,8.40
2022-12-02T12:29:57.491Z,8.60
2022-12-02T12:30:57.857Z,7.50
2022-12-02T12:31:58.025Z,7.30
2022-12-02T12:32:58.333Z,8.20
2022-12-02T12:33:58.704Z,8.00
2022-12-02T12:34:59.020Z,7.50
2022-12-02T12:35:59.320Z,7.70
2022-12-02T12:36:59.629Z,7.80
2022-12-02T12:37:59.907Z,8.00
2022-12-02T12:39:00.227Z,7.40
2022-12-02T12:40:00.591Z,7.70
2022-12-02T12:41:00.881Z,8.50
2022-12-02T12:42:01.924Z,7.90
2022-12-02T12:43:01.351Z,7.80
2022-12-02T12:44:01.624Z,7.30
2022-12-02T12:45:02.014Z,7.30
2022-12-02T12:46:02.368Z,7.00
2022-12-02T12:47:02.781Z,7.80
2022-12-02T12:48:02.816Z,7.40
2022-12-02T12:49:03.132Z,8.00
2022-12-02T12:50:03.567Z,8.30
2022-12-02T12:51:03.725Z,8.00
2022-12-02T12:52:04.080Z,8.40
2022-12-02T12:53:04.405Z,8.60
2022-12-02T12:54:04.718Z,8.10
2022-12-02T12:55:05.070Z,8.10
2022-12-02T12:56:05.368Z,8.30
2022-12-02T12:57:05.659Z,8.60